Flugplatz Beromuenster (LSZO)

Hier findest Du alle Informationen zum Flugplatz Beromuenster (LSZO).

Informationen für Piloten zum Flugplatz Beromuenster

Hier findest Du alle relevanten Informationen, die Du als Pilot benötigst, um Beromuenster anzufliegen.

Flugplatz: Beromuenster ICAO-Code: LSZO
Frequenz Turm: 122.45 Mhz GAFOR Gebiet: -
Frequenz Ground: 122.45 Mhz Mogas: nein
Platzrunde: N 3200 ft Landegebühr: 11 €
Platzhöhe: - Sunrise: 07:06 Uhr UTC
Pisten: 15/33 - 510 m x 20 m, GRAS Sunset: 15:39 Uhr UTC

Mitglieder, die in Beromuenster fliegen

Flugwetter am Flugplatz Beromuenster

Die METAR Information stammen aus EDTD (90.18 km entfernt).

METAR Code:
2017/06/29 10:00
EDTD 291000Z 25012KT 200V280 CAVOK 42/M01 Q1012 RMK SIROCCO

Flugschulen am Flugplatz Beromuenster

Am Flugplatz Beromuenster gibt es leider keine Flugschule.

Jetzt anmelden

Passwort vergessen

Umfrage Archiv

Zieht Ihr im Zuge der Gewichtserhöhung auf 600 kg MTOW den Kauf eines neuen ULs in Erwägung?

Nein
47.3 %
Ja
35.7 %
Vielleicht
17 %
Stimmen: 224 | Diskussion (56)
Anzeige: Roland Aircraft
Statistik Alle Mitglieder

Aktuell sind 8 Besucher online, davon 1 Mitglied und 7 Gäste.


Mitglieder online:
Jan1828 

Anzeige: VFR Sprechfunk Simulator


Anzeige: Pocket FMS